Terminal Aerodrome Forecast
Issued by NWS Austin/San Antonio, TX

Home | Current Version | Previous Version | Text Only | Print | Product List | Glossary On
Versions: 1 2 3 4 5 6 7 8 9 10 11 12 13 14 15 16 17 18
845
FTUS44 KEWX 190524
TAFAUS
TAF
KAUS 190524Z 1906/2012 01007KT P6SM SCT250
     FM191500 03014KT P6SM BKN250
     FM200000 04007KT P6SM BKN200=

USA.gov is the U.S. government's official web portal to all federal, state and local government web resources and services.